createdAt,value
2019-01-29T00:01:18.946Z,52.13
2019-01-29T00:03:26.408Z,47.80
2019-01-29T00:05:33.854Z,44.17
2019-01-29T00:07:41.473Z,42.10
2019-01-29T00:09:48.787Z,43.13
2019-01-29T00:11:56.290Z,42.87
2019-01-29T00:14:03.559Z,46.27
2019-01-29T00:16:11.244Z,42.63
2019-01-29T00:18:18.598Z,42.43
2019-01-29T00:20:26.106Z,41.60
2019-01-29T00:22:33.731Z,42.30
2019-01-29T00:24:41.208Z,40.50
2019-01-29T00:26:48.261Z,43.63
2019-01-29T00:28:55.442Z,42.70
2019-01-29T00:31:02.563Z,44.77
2019-01-29T00:33:09.963Z,43.93
2019-01-29T00:35:17.217Z,44.00
2019-01-29T00:37:24.260Z,43.93
2019-01-29T00:39:31.316Z,45.47
2019-01-29T00:41:38.428Z,44.80
2019-01-29T00:43:45.505Z,45.30
2019-01-29T00:45:52.657Z,44.60
2019-01-29T00:47:59.789Z,46.97
2019-01-29T00:50:08.003Z,44.13
2019-01-29T00:52:15.594Z,44.97
2019-01-29T00:54:23.212Z,44.80
2019-01-29T00:56:30.563Z,44.57
2019-01-29T00:58:37.965Z,43.73
2019-01-29T01:00:45.785Z,44.23
2019-01-29T01:02:53.140Z,43.97
2019-01-29T01:05:00.340Z,42.80
2019-01-29T01:07:07.341Z,43.67
2019-01-29T01:09:14.397Z,63.93
2019-01-29T01:11:21.443Z,66.40
2019-01-29T01:13:28.531Z,53.07
2019-01-29T01:15:35.926Z,47.53
2019-01-29T01:17:43.442Z,38.60
2019-01-29T01:19:50.929Z,38.10
2019-01-29T01:21:58.410Z,38.47
2019-01-29T01:24:05.808Z,35.67
2019-01-29T01:26:13.108Z,37.20
2019-01-29T01:28:20.437Z,36.73
2019-01-29T01:30:27.578Z,35.90
2019-01-29T01:32:34.654Z,35.23
2019-01-29T01:34:41.705Z,34.13
2019-01-29T01:36:48.743Z,35.17
2019-01-29T01:38:55.808Z,35.87
2019-01-29T01:41:02.847Z,35.67
2019-01-29T01:43:10.321Z,34.43
2019-01-29T01:45:17.360Z,34.37
2019-01-29T01:47:24.485Z,33.57
2019-01-29T01:49:32.089Z,37.33
2019-01-29T01:51:39.105Z,34.17
2019-01-29T01:53:46.164Z,34.30
2019-01-29T01:55:54.150Z,33.10
2019-01-29T01:58:01.239Z,33.23
2019-01-29T02:00:11.402Z,34.00
2019-01-29T02:02:18.475Z,34.83
2019-01-29T02:04:25.505Z,31.93
2019-01-29T02:06:32.587Z,34.63
2019-01-29T02:08:39.676Z,34.60
2019-01-29T02:10:46.746Z,33.87
2019-01-29T02:12:53.790Z,34.90
2019-01-29T02:15:00.863Z,36.00
2019-01-29T02:17:07.998Z,34.03
2019-01-29T02:19:15.108Z,34.67
2019-01-29T02:21:22.279Z,32.20
2019-01-29T02:23:29.339Z,33.07
2019-01-29T02:25:36.418Z,32.13
2019-01-29T02:27:43.511Z,31.53
2019-01-29T02:29:50.607Z,31.67
2019-01-29T02:31:57.692Z,33.17
2019-01-29T02:34:04.666Z,32.67
2019-01-29T02:36:11.887Z,32.23
2019-01-29T02:38:18.905Z,31.80
2019-01-29T02:40:30.049Z,31.27
2019-01-29T02:42:37.092Z,28.97
2019-01-29T02:44:44.152Z,29.17
2019-01-29T02:46:51.199Z,31.40
2019-01-29T02:48:58.275Z,29.10
2019-01-29T02:51:05.479Z,28.33
2019-01-29T02:53:18.036Z,28.17
2019-01-29T02:55:21.232Z,29.03
2019-01-29T02:57:28.285Z,27.47
2019-01-29T02:59:35.328Z,26.53
2019-01-29T03:01:42.364Z,28.90
2019-01-29T03:03:49.294Z,27.43
2019-01-29T03:05:56.291Z,27.40
2019-01-29T03:08:03.331Z,26.77
2019-01-29T03:10:12.770Z,27.73
2019-01-29T03:12:19.801Z,30.53
2019-01-29T03:14:26.801Z,33.50
2019-01-29T03:16:33.825Z,35.13
2019-01-29T03:18:40.871Z,42.97
2019-01-29T03:20:47.900Z,46.90
2019-01-29T03:22:54.942Z,34.40
2019-01-29T03:25:01.953Z,34.67
2019-01-29T03:27:08.991Z,33.53
2019-01-29T03:29:16.040Z,31.33
2019-01-29T03:31:23.042Z,27.87
2019-01-29T03:33:30.078Z,29.00
2019-01-29T03:35:37.166Z,27.97
2019-01-29T03:37:44.153Z,27.93
2019-01-29T03:39:51.190Z,27.43
2019-01-29T03:41:58.221Z,28.10
2019-01-29T03:44:05.566Z,30.47
2019-01-29T03:46:12.546Z,31.47
2019-01-29T03:48:19.888Z,32.90
2019-01-29T03:50:44.601Z,31.70
2019-01-29T03:52:51.631Z,32.37
2019-01-29T03:54:58.654Z,31.63
2019-01-29T03:57:05.729Z,29.27
2019-01-29T03:59:12.805Z,30.67
2019-01-29T04:01:19.772Z,29.70
2019-01-29T04:03:26.809Z,31.90
2019-01-29T04:05:33.875Z,30.70
2019-01-29T04:07:40.889Z,30.80
2019-01-29T04:09:47.860Z,29.97
2019-01-29T04:11:54.909Z,30.40
2019-01-29T04:14:02.014Z,30.70
2019-01-29T04:16:09.028Z,29.10
2019-01-29T04:18:16.057Z,29.20
2019-01-29T04:20:23.138Z,27.53
2019-01-29T04:22:30.131Z,28.83
2019-01-29T04:24:37.182Z,28.93
2019-01-29T04:26:44.213Z,28.50
2019-01-29T04:28:51.273Z,28.07
2019-01-29T04:30:58.323Z,27.73
2019-01-29T04:33:05.331Z,29.27
2019-01-29T04:35:12.376Z,29.53
2019-01-29T04:37:19.408Z,29.53
2019-01-29T04:39:26.430Z,29.90
2019-01-29T04:41:33.498Z,28.20
2019-01-29T04:43:40.499Z,27.87
2019-01-29T04:45:47.578Z,29.57
2019-01-29T04:47:54.647Z,27.53
2019-01-29T04:50:01.726Z,29.90
2019-01-29T04:52:08.780Z,30.07
2019-01-29T04:54:15.858Z,29.10
2019-01-29T04:56:22.940Z,30.57
2019-01-29T04:58:30.004Z,29.93
2019-01-29T05:00:37.136Z,35.13
2019-01-29T05:02:44.154Z,33.50
2019-01-29T05:04:51.217Z,32.60
2019-01-29T05:06:58.349Z,29.73
2019-01-29T05:09:08.807Z,29.80
2019-01-29T05:11:15.854Z,30.43
2019-01-29T05:13:22.928Z,29.50
2019-01-29T05:15:30.002Z,29.10
2019-01-29T05:17:37.064Z,28.67
2019-01-29T05:19:44.173Z,30.10
2019-01-29T05:21:51.196Z,29.33
2019-01-29T05:24:06.619Z,31.27
2019-01-29T05:26:07.080Z,30.27
2019-01-29T05:28:14.168Z,30.53
2019-01-29T05:30:26.371Z,37.13
2019-01-29T05:32:34.319Z,35.60
2019-01-29T05:34:41.390Z,33.87
2019-01-29T05:36:48.320Z,34.47
2019-01-29T05:38:55.330Z,36.03
2019-01-29T05:41:02.384Z,37.80
2019-01-29T05:43:09.444Z,34.50
2019-01-29T05:45:18.693Z,32.67
2019-01-29T05:47:25.731Z,34.97
2019-01-29T05:49:33.103Z,33.93
2019-01-29T05:51:40.664Z,34.70
2019-01-29T05:53:47.814Z,35.17
2019-01-29T05:55:55.072Z,33.27
2019-01-29T05:58:02.466Z,33.93
2019-01-29T06:00:22.904Z,33.37
2019-01-29T06:02:29.923Z,33.27
2019-01-29T06:04:36.997Z,32.87
2019-01-29T06:06:44.055Z,34.10
2019-01-29T06:08:51.076Z,34.93
2019-01-29T06:10:58.151Z,33.17
2019-01-29T06:13:05.329Z,33.27
2019-01-29T06:15:15.539Z,35.10
2019-01-29T06:17:27.483Z,35.90
2019-01-29T06:19:31.351Z,34.70
2019-01-29T06:21:38.371Z,33.90
2019-01-29T06:23:45.460Z,34.23
2019-01-29T06:25:52.517Z,34.57
2019-01-29T06:27:59.498Z,31.80
2019-01-29T06:30:08.587Z,35.03
2019-01-29T06:32:15.640Z,32.23
2019-01-29T06:34:22.843Z,34.70
2019-01-29T06:36:29.989Z,35.73
2019-01-29T06:38:37.103Z,36.30
2019-01-29T06:40:44.492Z,35.13
2019-01-29T06:42:51.603Z,35.83
2019-01-29T06:44:58.983Z,36.13
2019-01-29T06:47:06.249Z,33.10
2019-01-29T06:49:13.373Z,32.60
2019-01-29T06:51:20.457Z,35.90
2019-01-29T06:53:27.692Z,36.53
2019-01-29T06:55:35.025Z,31.73
2019-01-29T06:57:42.487Z,35.30
2019-01-29T06:59:49.893Z,34.50
2019-01-29T07:01:57.024Z,32.43
2019-01-29T07:04:03.996Z,33.10
2019-01-29T07:06:11.050Z,36.03
2019-01-29T07:08:18.095Z,34.00
2019-01-29T07:10:25.333Z,34.27
2019-01-29T07:12:32.747Z,35.27
2019-01-29T07:14:39.975Z,35.87
2019-01-29T07:16:59.965Z,33.03
2019-01-29T07:19:15.433Z,31.70
2019-01-29T07:21:22.493Z,32.70
2019-01-29T07:23:29.571Z,35.43
2019-01-29T07:25:36.528Z,32.73
2019-01-29T07:27:43.545Z,36.33
2019-01-29T07:29:50.578Z,34.07
2019-01-29T07:31:57.585Z,34.67
2019-01-29T07:34:04.592Z,37.13
2019-01-29T07:36:11.629Z,35.73
2019-01-29T07:38:18.651Z,34.97
2019-01-29T07:40:25.752Z,37.00
2019-01-29T07:42:33.347Z,33.30
2019-01-29T07:44:40.483Z,34.67
2019-01-29T07:46:47.589Z,34.23
2019-01-29T07:48:54.591Z,32.33
2019-01-29T07:51:01.699Z,32.80
2019-01-29T07:53:08.785Z,34.17
2019-01-29T07:55:16.129Z,32.67
2019-01-29T07:57:23.211Z,31.77
2019-01-29T07:59:33.243Z,33.27
2019-01-29T08:01:39.952Z,33.53
2019-01-29T08:03:47.209Z,30.43
2019-01-29T08:05:54.316Z,30.30
2019-01-29T08:08:01.392Z,29.53
2019-01-29T08:10:08.949Z,32.93
2019-01-29T08:12:16.660Z,29.00
2019-01-29T08:14:24.147Z,29.63
2019-01-29T08:16:31.570Z,27.80
2019-01-29T08:18:39.088Z,30.43
2019-01-29T08:20:46.119Z,28.60
2019-01-29T08:22:53.240Z,34.73
2019-01-29T08:25:01.862Z,36.17
2019-01-29T08:27:09.124Z,34.93
2019-01-29T08:29:16.680Z,31.07
2019-01-29T08:31:24.411Z,27.07
2019-01-29T08:33:31.782Z,30.80
2019-01-29T08:35:39.235Z,34.17
2019-01-29T08:37:46.820Z,29.50
2019-01-29T08:39:54.257Z,30.50
2019-01-29T08:42:01.513Z,30.03
2019-01-29T08:44:09.243Z,30.07
2019-01-29T08:46:16.742Z,34.17
2019-01-29T08:48:24.446Z,30.07
2019-01-29T08:50:31.748Z,27.67
2019-01-29T08:52:39.226Z,29.07
2019-01-29T08:54:46.620Z,29.13
2019-01-29T08:56:53.765Z,28.93
2019-01-29T08:59:00.968Z,28.13
2019-01-29T09:01:08.842Z,33.50
2019-01-29T09:03:16.127Z,27.93
2019-01-29T09:05:23.346Z,26.37
2019-01-29T09:07:30.727Z,28.67
2019-01-29T09:09:38.112Z,28.37
2019-01-29T09:11:45.552Z,28.37
2019-01-29T09:13:52.988Z,28.20
2019-01-29T09:16:00.397Z,28.20
2019-01-29T09:18:07.501Z,26.30
2019-01-29T09:20:15.913Z,27.00
2019-01-29T09:22:23.179Z,28.50
2019-01-29T09:24:30.269Z,26.50
2019-01-29T09:26:37.745Z,27.20
2019-01-29T09:28:45.217Z,29.90
2019-01-29T09:30:52.678Z,29.33
2019-01-29T09:33:00.175Z,26.70
2019-01-29T09:35:07.637Z,26.83
2019-01-29T09:37:15.102Z,28.93
2019-01-29T09:39:22.523Z,27.57
2019-01-29T09:41:29.964Z,26.83
2019-01-29T09:43:37.279Z,27.30
2019-01-29T09:45:44.589Z,29.10
2019-01-29T09:47:52.204Z,28.97
2019-01-29T09:49:59.552Z,27.10
2019-01-29T09:52:06.983Z,26.27
2019-01-29T09:54:14.697Z,22.77
2019-01-29T09:56:22.323Z,24.30
2019-01-29T09:58:29.759Z,24.27
2019-01-29T10:00:39.735Z,22.83
2019-01-29T10:02:47.672Z,22.33
2019-01-29T10:04:55.244Z,28.77
2019-01-29T10:07:02.382Z,35.20
2019-01-29T10:09:10.249Z,31.50
2019-01-29T10:11:17.384Z,36.37
2019-01-29T10:13:24.516Z,24.37
2019-01-29T10:15:33.811Z,20.43
2019-01-29T10:17:40.945Z,21.07
2019-01-29T10:19:47.983Z,31.10
2019-01-29T10:21:55.308Z,21.70
2019-01-29T10:24:02.975Z,22.10
2019-01-29T10:26:10.442Z,20.37
2019-01-29T10:28:17.980Z,21.20
2019-01-29T10:30:25.931Z,20.57
2019-01-29T10:32:33.271Z,18.73
2019-01-29T10:34:40.691Z,18.77
2019-01-29T10:36:48.087Z,19.03
2019-01-29T10:38:55.240Z,18.60
2019-01-29T10:41:02.466Z,19.83
2019-01-29T10:43:09.922Z,18.63
2019-01-29T10:45:18.927Z,18.43
2019-01-29T10:47:26.482Z,18.47
2019-01-29T10:49:33.720Z,16.33
2019-01-29T10:51:40.858Z,14.83
2019-01-29T10:53:47.945Z,15.63
2019-01-29T10:55:55.554Z,18.00
2019-01-29T10:58:03.143Z,18.33
2019-01-29T11:00:15.812Z,14.87
2019-01-29T11:02:23.496Z,16.97
2019-01-29T11:04:31.092Z,16.90
2019-01-29T11:06:38.504Z,13.53
2019-01-29T11:08:46.573Z,13.83
2019-01-29T11:10:54.339Z,13.73
2019-01-29T11:13:01.832Z,14.00
2019-01-29T11:15:13.679Z,15.73
2019-01-29T11:17:20.910Z,14.10
2019-01-29T11:19:28.087Z,14.67
2019-01-29T11:21:35.322Z,13.67
2019-01-29T11:23:42.434Z,13.30
2019-01-29T11:25:55.665Z,13.90
2019-01-29T11:27:58.857Z,15.50
2019-01-29T11:30:06.843Z,17.97
2019-01-29T11:32:14.123Z,15.37
2019-01-29T11:34:21.354Z,17.57
2019-01-29T11:36:28.815Z,21.30
2019-01-29T11:38:35.949Z,19.47
2019-01-29T11:40:43.513Z,17.77
2019-01-29T11:42:51.137Z,16.23
2019-01-29T11:44:58.530Z,19.43
2019-01-29T11:47:06.592Z,18.97
2019-01-29T11:49:14.332Z,19.13
2019-01-29T11:51:21.524Z,20.53
2019-01-29T11:53:28.960Z,23.10
2019-01-29T11:55:36.194Z,21.17
2019-01-29T11:57:43.525Z,26.43
2019-01-29T11:59:51.013Z,26.93
2019-01-29T12:01:58.442Z,20.70
2019-01-29T12:04:06.380Z,22.53
2019-01-29T12:06:13.668Z,25.67
2019-01-29T12:08:21.151Z,21.07
2019-01-29T12:10:28.373Z,24.83
2019-01-29T12:12:35.826Z,18.20
2019-01-29T12:14:43.349Z,19.93
2019-01-29T12:16:50.822Z,21.37
2019-01-29T12:18:58.379Z,19.17
2019-01-29T12:21:05.784Z,22.07
2019-01-29T12:23:12.851Z,33.80
2019-01-29T12:25:19.961Z,30.00
2019-01-29T12:27:27.128Z,37.63
2019-01-29T12:29:34.303Z,24.93
2019-01-29T12:31:41.610Z,22.37
2019-01-29T12:33:48.810Z,23.23
2019-01-29T12:35:55.921Z,23.83
2019-01-29T12:38:05.566Z,23.77
2019-01-29T12:40:12.656Z,19.03
2019-01-29T12:42:19.908Z,27.23
2019-01-29T12:44:27.129Z,23.90
2019-01-29T12:46:34.386Z,19.17
2019-01-29T12:48:41.502Z,24.93
2019-01-29T12:50:58.410Z,24.33
2019-01-29T12:53:27.168Z,27.63
2019-01-29T12:55:34.263Z,19.20
2019-01-29T12:57:41.517Z,23.33
2019-01-29T12:59:48.648Z,17.40
2019-01-29T13:01:55.774Z,17.80
2019-01-29T13:04:03.833Z,19.40
2019-01-29T13:06:11.503Z,15.73
2019-01-29T13:08:19.777Z,15.27
2019-01-29T13:10:28.642Z,21.03
2019-01-29T13:12:36.540Z,15.00
2019-01-29T13:14:43.833Z,26.80
2019-01-29T13:16:51.053Z,23.43
2019-01-29T13:18:58.386Z,37.77
2019-01-29T13:21:05.567Z,40.80
2019-01-29T13:23:12.696Z,46.40
2019-01-29T13:25:19.924Z,55.50
2019-01-29T13:27:27.083Z,61.00
2019-01-29T13:29:34.414Z,76.33
2019-01-29T13:31:41.574Z,88.47
2019-01-29T13:33:48.704Z,40.27
2019-01-29T13:35:55.913Z,75.90
2019-01-29T13:38:03.270Z,38.57
2019-01-29T13:40:11.296Z,42.50
2019-01-29T13:42:18.508Z,37.47
2019-01-29T13:44:25.716Z,38.70
2019-01-29T13:46:32.863Z,30.97
2019-01-29T13:48:40.165Z,27.60
2019-01-29T13:50:51.902Z,27.90
2019-01-29T13:52:59.030Z,35.30
2019-01-29T13:55:07.806Z,27.03
2019-01-29T13:57:14.890Z,36.80
2019-01-29T13:59:22.011Z,22.60
2019-01-29T14:01:29.252Z,17.57
2019-01-29T14:03:37.278Z,21.40
2019-01-29T14:05:44.491Z,31.90
2019-01-29T14:07:51.716Z,18.80
2019-01-29T14:09:58.880Z,28.67
2019-01-29T14:12:06.345Z,25.10
2019-01-29T14:14:13.438Z,15.90
2019-01-29T14:16:20.502Z,17.67
2019-01-29T14:18:31.037Z,20.20
2019-01-29T14:20:38.165Z,18.13
2019-01-29T14:22:45.574Z,13.73
2019-01-29T14:24:53.085Z,14.37
2019-01-29T14:27:00.586Z,15.53
2019-01-29T14:29:08.156Z,12.43
2019-01-29T14:31:15.224Z,11.67
2019-01-29T14:33:22.335Z,11.43
2019-01-29T14:35:29.508Z,10.10
2019-01-29T14:38:30.172Z,12.37
2019-01-29T14:40:37.284Z,13.97
2019-01-29T14:42:46.375Z,13.77
2019-01-29T14:44:56.114Z,11.63
2019-01-29T14:47:03.277Z,14.70
2019-01-29T14:49:10.519Z,12.90
2019-01-29T14:51:17.706Z,11.17
2019-01-29T14:53:24.906Z,10.67
2019-01-29T14:55:32.021Z,13.53
2019-01-29T14:57:41.018Z,12.27
2019-01-29T14:59:48.083Z,11.00
2019-01-29T15:01:55.244Z,9.70
2019-01-29T15:04:02.323Z,10.63
2019-01-29T15:06:09.631Z,9.00
2019-01-29T15:08:16.854Z,11.17
2019-01-29T15:10:23.979Z,9.43
2019-01-29T15:12:31.155Z,10.83
2019-01-29T15:14:38.334Z,10.47
2019-01-29T15:17:03.819Z,12.87
2019-01-29T15:19:14.499Z,11.00
2019-01-29T15:21:21.691Z,11.20
2019-01-29T15:23:28.855Z,12.50
2019-01-29T15:25:36.082Z,11.80
2019-01-29T15:27:43.165Z,11.77
2019-01-29T15:29:50.550Z,14.13
2019-01-29T15:31:57.754Z,16.17
2019-01-29T15:34:05.042Z,18.37
2019-01-29T15:36:12.215Z,16.40
2019-01-29T15:38:19.428Z,11.40
2019-01-29T15:40:26.534Z,20.27
2019-01-29T15:42:33.783Z,26.80
2019-01-29T15:44:41.038Z,13.77
2019-01-29T15:46:48.543Z,21.67
2019-01-29T15:48:55.817Z,21.57
2019-01-29T15:51:03.274Z,15.07
2019-01-29T15:53:10.793Z,14.40
2019-01-29T15:55:18.036Z,16.73
2019-01-29T15:57:25.338Z,14.93
2019-01-29T15:59:32.640Z,16.10
2019-01-29T16:01:39.980Z,13.90
2019-01-29T16:03:47.418Z,14.60
2019-01-29T16:05:54.788Z,15.40
2019-01-29T16:08:02.018Z,16.00
2019-01-29T16:10:11.871Z,30.47
2019-01-29T16:12:19.148Z,27.60
2019-01-29T16:14:26.271Z,24.13
2019-01-29T16:16:33.410Z,21.00
2019-01-29T16:18:40.537Z,20.60
2019-01-29T16:20:48.037Z,17.93
2019-01-29T16:22:55.182Z,19.73
2019-01-29T16:25:02.343Z,15.50
2019-01-29T16:27:09.455Z,15.97
2019-01-29T16:29:16.760Z,17.90
2019-01-29T16:31:23.793Z,17.13
2019-01-29T16:33:31.056Z,15.17
2019-01-29T16:35:38.322Z,13.27
2019-01-29T16:37:45.387Z,14.27
2019-01-29T16:39:52.470Z,12.57
2019-01-29T16:41:59.664Z,13.53
2019-01-29T16:44:07.539Z,14.47
2019-01-29T16:46:15.052Z,21.27
2019-01-29T16:48:22.370Z,26.53
2019-01-29T16:50:29.588Z,22.00
2019-01-29T16:52:36.706Z,20.83
2019-01-29T16:54:43.997Z,17.50
2019-01-29T16:56:51.256Z,17.43
2019-01-29T16:58:58.344Z,19.33
2019-01-29T17:01:06.023Z,17.30
2019-01-29T17:03:13.177Z,22.30
2019-01-29T17:05:20.257Z,18.83
2019-01-29T17:07:27.493Z,20.47
2019-01-29T17:09:35.068Z,18.83
2019-01-29T17:11:42.219Z,19.83
2019-01-29T17:13:49.742Z,21.30
2019-01-29T17:15:57.254Z,24.47
2019-01-29T17:18:04.588Z,24.70
2019-01-29T17:20:17.065Z,24.67
2019-01-29T17:22:24.234Z,17.80
2019-01-29T17:24:31.566Z,20.67
2019-01-29T17:26:38.638Z,22.23
2019-01-29T17:28:45.879Z,21.67
2019-01-29T17:30:53.049Z,21.23
2019-01-29T17:33:00.458Z,23.50
2019-01-29T17:35:07.812Z,25.23
2019-01-29T17:37:15.139Z,22.57
2019-01-29T17:39:22.529Z,18.80
2019-01-29T17:41:29.642Z,19.03
2019-01-29T17:43:37.029Z,17.83
2019-01-29T17:45:46.996Z,20.13
2019-01-29T17:47:54.263Z,19.73
2019-01-29T17:50:01.557Z,20.10
2019-01-29T17:52:08.729Z,19.33
2019-01-29T17:54:16.001Z,20.87
2019-01-29T17:56:23.332Z,21.40
2019-01-29T17:58:30.631Z,21.40
2019-01-29T18:00:39.212Z,19.03
2019-01-29T18:02:46.857Z,19.03
2019-01-29T18:04:54.046Z,18.97
2019-01-29T18:07:01.211Z,18.50
2019-01-29T18:09:10.840Z,19.17
2019-01-29T18:11:18.015Z,19.60
2019-01-29T18:13:25.177Z,18.63
2019-01-29T18:15:32.645Z,17.37
2019-01-29T18:17:40.045Z,17.63
2019-01-29T18:19:47.451Z,16.53
2019-01-29T18:21:57.149Z,17.37
2019-01-29T18:24:04.387Z,17.90
2019-01-29T18:26:11.587Z,18.57
2019-01-29T18:28:18.740Z,19.40
2019-01-29T18:30:29.775Z,18.83
2019-01-29T18:32:36.901Z,19.80
2019-01-29T18:34:44.365Z,18.63
2019-01-29T18:36:51.606Z,25.40
2019-01-29T18:38:59.095Z,25.80
2019-01-29T18:41:06.495Z,35.57
2019-01-29T18:43:13.869Z,29.63
2019-01-29T18:45:21.093Z,22.60
2019-01-29T18:47:28.351Z,25.87
2019-01-29T18:49:35.911Z,22.73
2019-01-29T18:51:43.184Z,28.57
2019-01-29T18:53:50.636Z,27.03
2019-01-29T18:55:58.075Z,23.80
2019-01-29T18:58:11.664Z,24.37
2019-01-29T19:00:21.137Z,31.70
2019-01-29T19:02:28.420Z,39.87
2019-01-29T19:04:35.850Z,26.83
2019-01-29T19:06:43.414Z,26.27
2019-01-29T19:08:50.784Z,24.90
2019-01-29T19:10:58.020Z,20.97
2019-01-29T19:13:05.516Z,16.90
2019-01-29T19:15:22.074Z,19.20
2019-01-29T19:17:29.286Z,18.33
2019-01-29T19:19:36.633Z,21.00
2019-01-29T19:21:44.128Z,20.30
2019-01-29T19:23:51.442Z,19.30
2019-01-29T19:25:59.224Z,20.37
2019-01-29T19:28:06.606Z,22.63
2019-01-29T19:30:24.187Z,23.70
2019-01-29T19:32:31.750Z,22.97
2019-01-29T19:34:39.154Z,18.20
2019-01-29T19:36:46.416Z,16.60
2019-01-29T19:38:53.650Z,17.27
2019-01-29T19:41:00.960Z,24.40
2019-01-29T19:43:08.212Z,53.63
2019-01-29T19:45:19.942Z,43.47
2019-01-29T19:47:27.553Z,34.53
2019-01-29T19:49:34.639Z,26.47
2019-01-29T19:51:42.885Z,23.97
2019-01-29T19:53:50.161Z,28.20
2019-01-29T19:55:57.287Z,34.30
2019-01-29T19:58:09.107Z,32.10
2019-01-29T20:00:21.279Z,33.77
2019-01-29T20:02:28.494Z,36.10
2019-01-29T20:04:35.652Z,38.13
2019-01-29T20:06:42.797Z,40.33
2019-01-29T20:08:50.002Z,46.50
2019-01-29T20:10:57.106Z,40.70
2019-01-29T20:13:04.191Z,36.23
2019-01-29T20:15:13.695Z,52.33
2019-01-29T20:17:21.084Z,41.63
2019-01-29T20:19:28.536Z,44.63
2019-01-29T20:21:35.848Z,41.60
2019-01-29T20:23:42.992Z,33.00
2019-01-29T20:25:50.074Z,35.13
2019-01-29T20:28:15.114Z,21.00
2019-01-29T20:30:26.027Z,20.63
2019-01-29T20:32:33.269Z,21.73
2019-01-29T20:34:40.593Z,25.63
2019-01-29T20:36:47.855Z,22.03
2019-01-29T20:38:54.862Z,21.60
2019-01-29T20:41:02.017Z,28.77
2019-01-29T20:43:16.886Z,27.00
2019-01-29T20:45:30.118Z,58.93
2019-01-29T20:47:40.917Z,41.53
2019-01-29T20:49:48.891Z,26.70
2019-01-29T20:55:03.667Z,24.40
2019-01-29T21:00:24.734Z,20.90
2019-01-29T21:02:50.282Z,17.60
2019-01-29T21:05:28.493Z,19.57
2019-01-29T21:07:47.357Z,19.00
2019-01-29T21:10:07.911Z,19.10
2019-01-29T21:12:29.113Z,18.93
2019-01-29T21:14:48.097Z,32.00
2019-01-29T21:17:27.019Z,33.90
2019-01-29T21:19:44.469Z,27.93
2019-01-29T21:22:00.852Z,23.23
2019-01-29T21:24:08.056Z,20.40
2019-01-29T21:26:15.306Z,20.73
2019-01-29T21:28:22.583Z,22.57
2019-01-29T21:30:32.865Z,19.40
2019-01-29T21:32:39.973Z,18.17
2019-01-29T21:34:47.165Z,17.97
2019-01-29T21:36:54.408Z,18.50
2019-01-29T21:39:01.436Z,20.30
2019-01-29T21:41:08.676Z,22.70
2019-01-29T21:43:15.831Z,21.10
2019-01-29T21:45:23.477Z,24.57
2019-01-29T21:47:30.730Z,29.27
2019-01-29T21:49:37.940Z,30.67
2019-01-29T21:51:45.133Z,29.60
2019-01-29T21:53:52.352Z,24.10
2019-01-29T21:55:59.524Z,20.63
2019-01-29T21:58:07.406Z,19.87
2019-01-29T22:00:31.065Z,19.50
2019-01-29T22:02:38.133Z,21.60
2019-01-29T22:04:45.173Z,26.00
2019-01-29T22:06:52.263Z,30.17
2019-01-29T22:08:59.522Z,32.40
2019-01-29T22:11:06.652Z,38.63
2019-01-29T22:13:14.969Z,32.97
2019-01-29T22:15:22.454Z,39.13
2019-01-29T22:17:29.799Z,42.97
2019-01-29T22:19:36.933Z,37.10
2019-01-29T22:21:44.212Z,37.60
2019-01-29T22:23:51.494Z,28.00
2019-01-29T22:25:58.607Z,41.63
2019-01-29T22:28:06.658Z,42.30
2019-01-29T22:30:27.003Z,40.00
2019-01-29T22:32:34.139Z,38.17
2019-01-29T22:34:41.295Z,25.30
2019-01-29T22:36:48.430Z,35.17
2019-01-29T22:38:55.593Z,35.43
2019-01-29T22:41:02.732Z,37.80
2019-01-29T22:43:10.400Z,39.57
2019-01-29T22:45:18.170Z,40.23
2019-01-29T22:47:25.263Z,42.50
2019-01-29T22:49:32.484Z,35.13
2019-01-29T22:51:39.874Z,30.80
2019-01-29T22:53:47.085Z,27.47
2019-01-29T22:55:54.181Z,25.30
2019-01-29T22:58:01.227Z,25.00
2019-01-29T23:00:58.545Z,24.07
2019-01-29T23:03:05.709Z,22.70
2019-01-29T23:05:12.894Z,22.73
2019-01-29T23:07:33.134Z,25.93
2019-01-29T23:09:40.265Z,26.80
2019-01-29T23:11:47.340Z,26.43
2019-01-29T23:13:54.500Z,29.90
2019-01-29T23:16:01.616Z,29.80
2019-01-29T23:18:08.656Z,30.17
2019-01-29T23:20:15.997Z,32.57
2019-01-29T23:22:23.130Z,27.20
2019-01-29T23:24:30.157Z,24.80
2019-01-29T23:26:37.197Z,27.07
2019-01-29T23:28:44.370Z,26.40
2019-01-29T23:30:51.626Z,29.40
2019-01-29T23:32:58.614Z,30.37
2019-01-29T23:35:06.467Z,32.23
2019-01-29T23:37:13.543Z,37.43
2019-01-29T23:39:20.565Z,34.97
2019-01-29T23:41:27.588Z,38.80
2019-01-29T23:43:34.897Z,38.47
2019-01-29T23:45:41.991Z,43.27
2019-01-29T23:47:51.010Z,45.17
2019-01-29T23:49:58.088Z,38.10
2019-01-29T23:52:05.245Z,35.13
2019-01-29T23:54:12.357Z,35.77
2019-01-29T23:56:19.536Z,29.47
2019-01-29T23:58:26.485Z,25.93
